createdAt,value
2024-01-24T00:00:55.072Z,3.737
2024-01-24T00:05:47.499Z,3.707
2024-01-24T00:10:49.606Z,3.707
2024-01-24T00:15:49.422Z,3.707
2024-01-24T00:20:50.782Z,3.637
2024-01-24T00:25:50.472Z,3.576
2024-01-24T00:30:51.263Z,3.435
2024-01-24T00:35:47.827Z,3.325
2024-01-24T00:40:48.836Z,3.284
2024-01-24T00:45:48.229Z,3.214
2024-01-24T00:50:51.092Z,3.143
2024-01-24T00:55:49.074Z,3.093
2024-01-24T01:00:48.825Z,3.063
2024-01-24T01:05:50.684Z,3.063
2024-01-24T01:10:46.700Z,2.982
2024-01-24T01:15:48.815Z,2.831
2024-01-24T01:20:47.376Z,2.781
2024-01-24T01:25:50.029Z,2.831
2024-01-24T01:30:48.066Z,2.922
2024-01-24T01:35:48.325Z,3.133
2024-01-24T01:40:49.628Z,3.294
2024-01-24T01:45:46.241Z,3.425
2024-01-24T01:50:52.669Z,3.566
2024-01-24T01:55:48.348Z,3.677
2024-01-24T02:00:49.533Z,3.748
2024-01-24T02:05:49.597Z,3.828
2024-01-24T02:10:48.035Z,3.889
2024-01-24T02:15:51.338Z,3.838
2024-01-24T02:20:47.297Z,3.758
2024-01-24T02:25:48.826Z,3.707
2024-01-24T02:30:47.246Z,3.647
2024-01-24T02:35:49.859Z,3.677
2024-01-24T02:40:51.361Z,3.677
2024-01-24T02:45:47.055Z,3.677
2024-01-24T02:50:48.555Z,3.687
2024-01-24T02:55:47.980Z,3.707
2024-01-24T03:00:48.513Z,3.707
2024-01-24T03:05:51.853Z,3.687
2024-01-24T03:10:50.413Z,3.748
2024-01-24T03:15:52.020Z,3.687
2024-01-24T03:20:50.190Z,3.637
2024-01-24T03:25:46.458Z,3.596
2024-01-24T03:30:46.678Z,3.556
2024-01-24T03:35:47.430Z,3.466
2024-01-24T03:40:49.364Z,3.456
2024-01-24T03:45:48.433Z,3.425
2024-01-24T03:50:51.057Z,3.395
2024-01-24T03:55:48.405Z,3.456
2024-01-24T04:00:48.389Z,3.466
2024-01-24T04:05:52.262Z,3.466
2024-01-24T04:10:49.244Z,3.536
2024-01-24T04:15:46.916Z,3.526
2024-01-24T04:20:49.322Z,3.536
2024-01-24T04:25:45.375Z,3.526
2024-01-24T04:30:49.129Z,3.556
2024-01-24T04:35:50.034Z,3.556
2024-01-24T04:40:49.413Z,3.526
2024-01-24T04:45:47.985Z,3.536
2024-01-24T04:50:48.313Z,3.526
2024-01-24T04:55:49.302Z,3.466
2024-01-24T05:00:47.650Z,3.274
2024-01-24T05:05:53.353Z,3.254
2024-01-24T05:10:48.859Z,3.143
2024-01-24T05:15:47.240Z,3.143
2024-01-24T05:20:47.253Z,3.073
2024-01-24T05:25:47.764Z,2.992
2024-01-24T05:30:47.148Z,2.932
2024-01-24T05:35:46.974Z,2.841
2024-01-24T05:40:47.578Z,2.831
2024-01-24T05:45:46.840Z,2.841
2024-01-24T05:50:48.223Z,2.831
2024-01-24T05:55:46.359Z,2.781
2024-01-24T06:00:49.915Z,2.751
2024-01-24T06:05:51.363Z,2.831
2024-01-24T06:10:54.097Z,2.811
2024-01-24T06:15:47.215Z,2.781
2024-01-24T06:20:48.004Z,2.73
2024-01-24T06:25:49.369Z,2.751
2024-01-24T06:30:51.304Z,2.73
2024-01-24T06:35:53.275Z,2.74
2024-01-24T06:40:52.539Z,2.73
2024-01-24T06:45:52.067Z,2.771
2024-01-24T06:50:55.694Z,2.781
2024-01-24T06:55:50.650Z,2.831
2024-01-24T07:00:52.935Z,2.831
2024-01-24T07:05:50.241Z,2.912
2024-01-24T07:10:52.987Z,2.952
2024-01-24T07:15:55.162Z,2.982
2024-01-24T07:20:50.648Z,3.073
2024-01-24T07:25:50.459Z,3.174
2024-01-24T07:30:51.955Z,3.204
2024-01-24T07:35:50.014Z,3.375
2024-01-24T07:40:53.009Z,3.496
2024-01-24T07:45:54.297Z,3.576
2024-01-24T07:50:49.958Z,3.657
2024-01-24T07:56:03.365Z,3.647
2024-01-24T08:00:50.589Z,3.637
2024-01-24T08:05:49.807Z,3.637
2024-01-24T08:10:50.370Z,3.778
2024-01-24T08:15:51.163Z,3.828
2024-01-24T08:20:51.527Z,3.929
2024-01-24T08:25:51.705Z,4.07
2024-01-24T08:30:52.707Z,4.181
2024-01-24T08:35:50.906Z,4.271
2024-01-24T08:40:52.418Z,4.442
2024-01-24T08:45:51.893Z,4.805
2024-01-24T08:50:53.303Z,5.127
2024-01-24T08:55:53.574Z,5.309
2024-01-24T09:00:59.055Z,5.57
2024-01-24T09:05:53.861Z,5.792
2024-01-24T09:10:58.236Z,5.752
2024-01-24T09:15:53.634Z,5.822
2024-01-24T09:20:54.711Z,5.631
2024-01-24T09:25:55.480Z,5.661
2024-01-24T09:30:52.905Z,5.661
2024-01-24T09:35:52.636Z,5.721
2024-01-24T09:40:58.007Z,6.034
2024-01-24T09:45:55.422Z,6.215
2024-01-24T09:50:58.473Z,6.688
2024-01-24T09:55:56.779Z,6.577
2024-01-24T10:00:53.977Z,6.648
2024-01-24T10:05:52.825Z,6.366
2024-01-24T10:10:52.714Z,6.235
2024-01-24T10:15:59.319Z,6.084
2024-01-24T10:20:55.087Z,5.822
2024-01-24T10:25:55.119Z,6.034
2024-01-24T10:30:54.166Z,6.185
2024-01-24T10:35:54.964Z,6.366
2024-01-24T10:40:54.279Z,6.487
2024-01-24T10:45:54.317Z,6.648
2024-01-24T10:50:50.918Z,6.688
2024-01-24T10:55:52.387Z,6.658
2024-01-24T11:00:52.284Z,6.588
2024-01-24T11:05:57.295Z,6.688
2024-01-24T11:10:53.070Z,6.799
2024-01-24T11:15:53.413Z,6.769
2024-01-24T11:20:51.757Z,6.759
2024-01-24T11:25:52.745Z,6.729
2024-01-24T11:30:53.858Z,6.729
2024-01-24T11:35:52.681Z,6.658
2024-01-24T11:40:54.332Z,6.688
2024-01-24T11:45:53.432Z,6.799
2024-01-24T11:50:53.782Z,6.759
2024-01-24T11:55:51.871Z,6.87
2024-01-24T12:00:52.838Z,6.94
2024-01-24T12:05:55.877Z,7.131
2024-01-24T12:10:52.584Z,7.172
2024-01-24T12:15:52.406Z,7.262
2024-01-24T12:20:52.914Z,7.393
2024-01-24T12:25:54.452Z,7.605
2024-01-24T12:30:52.555Z,7.756
2024-01-24T12:35:55.619Z,7.756
2024-01-24T12:40:56.808Z,7.665
2024-01-24T12:45:55.742Z,7.514
2024-01-24T12:50:52.161Z,7.524
2024-01-24T12:55:53.442Z,7.413
2024-01-24T13:00:56.451Z,7.564
2024-01-24T13:05:53.222Z,7.756
2024-01-24T13:10:51.765Z,7.877
2024-01-24T13:15:55.875Z,7.816
2024-01-24T13:20:50.396Z,7.796
2024-01-24T13:25:53.497Z,7.635
2024-01-24T13:30:54.892Z,7.484
2024-01-24T13:35:53.085Z,7.413
2024-01-24T13:40:54.238Z,7.383
2024-01-24T13:45:52.305Z,7.232
2024-01-24T13:50:49.916Z,7.172
2024-01-24T13:55:52.827Z,7.131
2024-01-24T14:00:54.288Z,7.151
2024-01-24T14:05:51.517Z,7.151
2024-01-24T14:10:50.548Z,7.182
2024-01-24T14:16:38.249Z,7.202
2024-01-24T14:20:55.244Z,7.101
2024-01-24T14:25:56.628Z,7.091
2024-01-24T14:30:54.695Z,6.95
2024-01-24T14:35:51.973Z,6.839
2024-01-24T14:40:53.183Z,6.698
2024-01-24T14:45:52.275Z,6.547
2024-01-24T14:50:51.347Z,6.235
2024-01-24T14:55:49.449Z,5.923
2024-01-24T15:00:52.475Z,5.601
2024-01-24T15:05:50.884Z,5.601
2024-01-24T15:10:52.557Z,5.611
2024-01-24T15:15:52.078Z,5.56
2024-01-24T15:21:07.647Z,5.641
2024-01-24T15:25:51.465Z,5.681
2024-01-24T15:30:51.237Z,5.691
2024-01-24T15:35:50.013Z,5.661
2024-01-24T15:40:51.519Z,5.601
2024-01-24T15:45:50.075Z,5.53
2024-01-24T15:50:51.500Z,5.359
2024-01-24T15:55:52.135Z,5.268
2024-01-24T16:00:51.282Z,5.198
2024-01-24T16:05:51.638Z,5.047
2024-01-24T16:10:49.434Z,4.976
2024-01-24T16:15:49.712Z,4.835
2024-01-24T16:20:47.469Z,4.865
2024-01-24T16:25:48.470Z,4.795
2024-01-24T16:30:52.822Z,4.795
2024-01-24T16:35:51.834Z,4.795
2024-01-24T16:40:48.312Z,4.775
2024-01-24T16:45:49.442Z,4.664
2024-01-24T16:50:49.329Z,4.503
2024-01-24T16:55:48.178Z,4.432
2024-01-24T17:00:51.683Z,4.382
2024-01-24T17:05:47.901Z,4.271
2024-01-24T17:10:51.705Z,4.291
2024-01-24T17:15:50.268Z,4.271
2024-01-24T17:20:47.002Z,4.503
2024-01-24T17:25:49.489Z,4.684
2024-01-24T17:30:47.396Z,4.583
2024-01-24T17:35:49.489Z,4.372
2024-01-24T17:40:52.175Z,4.07
2024-01-24T17:45:48.999Z,3.798
2024-01-24T17:50:47.038Z,3.687
2024-01-24T17:55:49.288Z,4.07
2024-01-24T18:00:53.844Z,6.628
2024-01-24T18:05:49.357Z,7.665
2024-01-24T18:10:47.684Z,8.33
2024-01-24T18:15:52.643Z,9.095
2024-01-24T18:20:48.086Z,9.83
2024-01-24T18:25:53.536Z,10.153
2024-01-24T18:30:45.637Z,10.404
2024-01-24T18:35:50.951Z,10.414
2024-01-24T18:40:52.294Z,10.445
2024-01-24T18:45:53.037Z,10.565
2024-01-24T18:50:48.798Z,10.666
2024-01-24T18:55:47.951Z,10.596
2024-01-24T19:00:50.134Z,10.596
2024-01-24T19:05:47.212Z,10.706
2024-01-24T19:10:51.907Z,10.666
2024-01-24T19:15:50.025Z,10.626
2024-01-24T19:20:48.161Z,10.626
2024-01-24T19:25:47.574Z,10.636
2024-01-24T19:30:51.741Z,10.626
2024-01-24T19:35:50.250Z,10.686
2024-01-24T19:40:49.642Z,10.505
2024-01-24T19:45:48.088Z,10.535
2024-01-24T19:50:48.117Z,10.445
2024-01-24T19:55:50.456Z,10.374
2024-01-24T20:00:49.360Z,10.435
2024-01-24T20:05:47.172Z,10.414
2024-01-24T20:10:52.374Z,10.374
2024-01-24T20:15:48.868Z,10.404
2024-01-24T20:20:50.931Z,10.475
2024-01-24T20:25:47.174Z,10.334
2024-01-24T20:30:49.431Z,10.294
2024-01-24T20:35:53.391Z,10.324
2024-01-24T20:40:47.258Z,10.233
2024-01-24T20:45:50.599Z,10.183
2024-01-24T20:50:48.876Z,10.102
2024-01-24T20:55:47.201Z,10.042
2024-01-24T21:00:50.140Z,10.042
2024-01-24T21:05:50.137Z,10.253
2024-01-24T21:10:59.724Z,10.505
2024-01-24T21:15:46.673Z,10.596
2024-01-24T21:20:49.970Z,10.737
2024-01-24T21:25:45.881Z,10.555
2024-01-24T21:30:48.497Z,10.596
2024-01-24T21:35:49.848Z,10.414
2024-01-24T21:40:48.093Z,10.868
2024-01-24T21:45:48.234Z,10.918
2024-01-24T21:50:53.204Z,10.918
2024-01-24T21:55:48.699Z,10.817
2024-01-24T22:00:55.593Z,10.696
2024-01-24T22:05:50.366Z,10.596
2024-01-24T22:10:51.853Z,10.656
2024-01-24T22:15:47.166Z,10.596
2024-01-24T22:20:50.181Z,10.475
2024-01-24T22:25:46.928Z,10.334
2024-01-24T22:30:47.749Z,10.445
2024-01-24T22:35:53.374Z,10.596
2024-01-24T22:40:51.186Z,10.535
2024-01-24T22:45:49.289Z,10.404
2024-01-24T22:50:51.417Z,10.455
2024-01-24T22:55:49.315Z,10.475
2024-01-24T23:01:05.875Z,10.404
2024-01-24T23:05:50.093Z,10.143
2024-01-24T23:10:45.960Z,10.012
2024-01-24T23:15:50.222Z,10.022
2024-01-24T23:20:49.326Z,10.002
2024-01-24T23:25:48.608Z,9.921
2024-01-24T23:30:49.904Z,9.85
2024-01-24T23:35:46.860Z,9.82
2024-01-24T23:40:49.380Z,9.83
2024-01-24T23:45:49.508Z,9.689
2024-01-24T23:50:48.615Z,9.649
2024-01-24T23:55:48.172Z,9.649
